Time,TemperatureF,DewpointF,PressureIn,WindDirection,WindDirectionDegrees,WindSpeedMPH,WindSpeedGustMPH,Humidity,HourlyPrecipIn,Conditions,Clouds,dailyrainin,SoftwareType,DateUTC
2013-05-08 00:00:00,52.8,51.1,29.88,SSW,206,0.0,3.0,94,0.00,,,0.01,Wunderground v.1.15,2013-05-08 04:00:00,
2013-05-08 00:05:00,52.6,50.9,29.88,SSW,206,0.0,3.0,94,0.00,,,0.01,Wunderground v.1.15,2013-05-08 04:05:00,
2013-05-08 00:09:00,52.5,50.8,29.88,SSW,206,0.0,0.0,94,0.00,,,0.01,Wunderground v.1.15,2013-05-08 04:09:00,
2013-05-08 00:15:00,52.4,50.7,29.88,SSW,206,0.0,0.0,94,0.00,,,0.01,Wunderground v.1.15,2013-05-08 04:15:00,
2013-05-08 00:20:00,52.3,50.9,29.88,SSW,206,0.0,0.0,95,0.00,,,0.01,Wunderground v.1.15,2013-05-08 04:20:00,
2013-05-08 00:25:00,52.2,50.8,29.88,SSW,206,0.0,0.0,95,0.00,,,0.01,Wunderground v.1.15,2013-05-08 04:25:00,
2013-05-08 00:30:00,52.2,50.8,29.88,SSW,206,0.0,0.0,95,0.00,,,0.01,Wunderground v.1.15,2013-05-08 04:30:00,
2013-05-08 00:34:00,52.1,50.7,29.88,SSW,206,0.0,0.0,95,0.00,,,0.01,Wunderground v.1.15,2013-05-08 04:34:00,
2013-05-08 00:40:00,52.1,51.0,29.88,SSW,206,0.0,0.0,96,0.00,,,0.01,Wunderground v.1.15,2013-05-08 04:40:00,
2013-05-08 00:45:00,52.1,51.0,29.88,SSW,206,0.0,0.0,96,0.00,,,0.01,Wunderground v.1.15,2013-05-08 04:45:00,
2013-05-08 00:50:00,52.1,51.0,29.88,SSW,206,0.0,0.0,96,0.00,,,0.01,Wunderground v.1.15,2013-05-08 04:50:00,
2013-05-08 00:59:00,52.0,50.9,29.88,SSW,206,0.0,0.0,96,0.00,,,0.01,Wunderground v.1.15,2013-05-08 04:59:00,
2013-05-08 01:05:00,52.0,50.9,29.88,SSW,206,0.0,0.0,96,0.00,,,0.00,Wunderground v.1.15,2013-05-08 05:05:00,
2013-05-08 01:10:00,52.0,50.9,29.88,SSW,206,0.0,0.0,96,0.00,,,0.00,Wunderground v.1.15,2013-05-08 05:10:00,
2013-05-08 01:15:00,52.0,50.9,29.88,SSW,206,0.0,0.0,96,0.00,,,0.00,Wunderground v.1.15,2013-05-08 05:15:00,
2013-05-08 01:20:00,52.0,50.9,29.88,SSW,206,0.0,0.0,96,0.00,,,0.00,Wunderground v.1.15,2013-05-08 05:20:00,
2013-05-08 01:30:00,52.1,51.0,29.88,SSW,206,0.0,0.0,96,0.00,,,0.00,Wunderground v.1.15,2013-05-08 05:30:00,
2013-05-08 01:35:00,52.1,51.0,29.88,SSW,206,0.0,0.0,96,0.00,,,0.00,Wunderground v.1.15,2013-05-08 05:35:00,
2013-05-08 01:40:00,52.2,51.1,29.88,SSW,206,0.0,0.0,96,0.00,,,0.00,Wunderground v.1.15,2013-05-08 05:40:00,
2013-05-08 01:45:00,52.2,51.1,29.87,SSW,206,0.0,0.0,96,0.00,,,0.00,Wunderground v.1.15,2013-05-08 05:45:00,
2013-05-08 01:54:00,52.3,51.2,29.87,SSW,206,0.0,0.0,96,0.00,,,0.00,Wunderground v.1.15,2013-05-08 05:54:00,
2013-05-08 02:00:00,52.3,51.5,29.86,SSW,206,0.0,0.0,97,0.00,,,0.00,Wunderground v.1.15,2013-05-08 06:00:00,
2013-05-08 02:05:00,52.3,51.5,29.86,SSW,206,0.0,0.0,97,0.00,,,0.00,Wunderground v.1.15,2013-05-08 06:05:00,
2013-05-08 02:10:00,52.3,51.5,29.86,SSW,206,0.0,0.0,97,0.00,,,0.00,Wunderground v.1.15,2013-05-08 06:10:00,
2013-05-08 02:15:00,52.4,51.6,29.86,SSW,206,0.0,0.0,97,0.00,,,0.00,Wunderground v.1.15,2013-05-08 06:15:00,
2013-05-08 02:24:00,52.4,51.6,29.86,SSW,206,0.0,0.0,97,0.00,,,0.00,Wunderground v.1.15,2013-05-08 06:24:00,
2013-05-08 02:30:00,52.4,51.6,29.86,SSW,206,0.0,0.0,97,0.00,,,0.00,Wunderground v.1.15,2013-05-08 06:30:00,
2013-05-08 02:35:00,52.4,51.6,29.86,SSW,206,0.0,0.0,97,0.00,,,0.00,Wunderground v.1.15,2013-05-08 06:35:00,
2013-05-08 02:40:00,52.4,51.6,29.86,SSW,206,0.0,0.0,97,0.00,,,0.00,Wunderground v.1.15,2013-05-08 06:40:00,
2013-05-08 02:45:00,52.4,51.6,29.85,SSW,206,0.0,0.0,97,0.00,,,0.00,Wunderground v.1.15,2013-05-08 06:45:00,
2013-05-08 02:54:00,52.5,51.7,29.85,SSW,206,0.0,0.0,97,0.00,,,0.00,Wunderground v.1.15,2013-05-08 06:54:00,
2013-05-08 03:00:00,52.5,51.7,29.85,SSW,206,0.0,0.0,97,0.00,,,0.00,Wunderground v.1.15,2013-05-08 07:00:00,
2013-05-08 03:05:00,52.5,51.7,29.85,SSW,206,0.0,0.0,97,0.00,,,0.00,Wunderground v.1.15,2013-05-08 07:05:00,
2013-05-08 03:10:00,52.5,51.7,29.85,SSW,206,0.0,0.0,97,0.00,,,0.00,Wunderground v.1.15,2013-05-08 07:10:00,
2013-05-08 03:19:00,52.5,51.7,29.85,SSW,206,0.0,0.0,97,0.00,,,0.00,Wunderground v.1.15,2013-05-08 07:19:00,
2013-05-08 03:25:00,52.5,51.7,29.85,SSW,206,0.0,0.0,97,0.00,,,0.00,Wunderground v.1.15,2013-05-08 07:25:00,
2013-05-08 03:30:00,52.6,51.8,29.85,SSW,206,0.0,0.0,97,0.00,,,0.00,Wunderground v.1.15,2013-05-08 07:30:00,
2013-05-08 03:35:00,52.6,51.8,29.85,SSW,206,0.0,0.0,97,0.00,,,0.00,Wunderground v.1.15,2013-05-08 07:35:00,
2013-05-08 03:44:00,52.6,51.8,29.85,SSW,206,0.0,0.0,97,0.00,,,0.00,Wunderground v.1.15,2013-05-08 07:44:00,
2013-05-08 03:50:00,52.6,51.8,29.85,SSW,206,0.0,0.0,97,0.00,,,0.00,Wunderground v.1.15,2013-05-08 07:50:00,
2013-05-08 03:55:00,52.6,51.8,29.85,SSW,206,0.0,0.0,97,0.00,,,0.00,Wunderground v.1.15,2013-05-08 07:55:00,
2013-05-08 04:00:00,52.6,51.8,29.85,SSW,206,0.0,0.0,97,0.00,,,0.00,Wunderground v.1.15,2013-05-08 08:00:00,
2013-05-08 04:05:00,52.6,51.8,29.85,SSW,206,0.0,0.0,97,0.00,,,0.00,Wunderground v.1.15,2013-05-08 08:05:00,
2013-05-08 04:14:00,52.6,51.8,29.86,SSW,206,0.0,0.0,97,0.00,,,0.00,Wunderground v.1.15,2013-05-08 08:14:00,
2013-05-08 04:20:00,52.6,51.8,29.86,SSW,206,0.0,0.0,97,0.00,,,0.00,Wunderground v.1.15,2013-05-08 08:20:00,
2013-05-08 04:25:00,52.6,51.8,29.86,SSW,206,0.0,0.0,97,0.00,,,0.00,Wunderground v.1.15,2013-05-08 08:25:00,
2013-05-08 04:30:00,52.6,51.8,29.86,SSW,206,0.0,0.0,97,0.00,,,0.00,Wunderground v.1.15,2013-05-08 08:30:00,
2013-05-08 04:35:00,52.6,51.8,29.86,SSW,206,0.0,0.0,97,0.00,,,0.00,Wunderground v.1.15,2013-05-08 08:35:00,
2013-05-08 04:44:00,52.6,51.8,29.86,SSW,206,0.0,0.0,97,0.00,,,0.00,Wunderground v.1.15,2013-05-08 08:44:00,
2013-05-08 04:50:00,52.6,51.8,29.86,SSW,206,0.0,0.0,97,0.00,,,0.00,Wunderground v.1.15,2013-05-08 08:50:00,
2013-05-08 04:55:00,52.6,51.8,29.86,SSW,206,0.0,0.0,97,0.00,,,0.00,Wunderground v.1.15,2013-05-08 08:55:00,
2013-05-08 05:00:00,52.6,51.8,29.86,SSW,206,0.0,0.0,97,0.00,,,0.00,Wunderground v.1.15,2013-05-08 09:00:00,
2013-05-08 05:09:00,52.6,51.8,29.86,SSW,206,0.0,0.0,97,0.00,,,0.01,Wunderground v.1.15,2013-05-08 09:09:00,
2013-05-08 05:15:00,52.5,51.7,29.86,SSW,206,0.0,0.0,97,0.00,,,0.01,Wunderground v.1.15,2013-05-08 09:15:00,
2013-05-08 05:20:00,52.5,51.7,29.86,SSW,206,0.0,0.0,97,0.00,,,0.01,Wunderground v.1.15,2013-05-08 09:20:00,
2013-05-08 05:25:00,52.5,51.7,29.86,SSW,206,0.0,0.0,97,0.00,,,0.01,Wunderground v.1.15,2013-05-08 09:25:00,
2013-05-08 05:34:00,52.4,51.6,29.86,SSW,206,0.0,0.0,97,0.00,,,0.01,Wunderground v.1.15,2013-05-08 09:34:00,
2013-05-08 05:40:00,52.4,51.6,29.86,SSW,206,0.0,0.0,97,0.00,,,0.01,Wunderground v.1.15,2013-05-08 09:40:00,
2013-05-08 05:45:00,52.4,51.6,29.86,SSW,206,0.0,0.0,97,0.00,,,0.01,Wunderground v.1.15,2013-05-08 09:45:00,
2013-05-08 05:50:00,52.4,51.6,29.86,SSW,206,0.0,0.0,97,0.00,,,0.01,Wunderground v.1.15,2013-05-08 09:50:00,
2013-05-08 05:55:00,52.5,51.7,29.86,SSW,206,0.0,0.0,97,0.00,,,0.01,Wunderground v.1.15,2013-05-08 09:55:00,
2013-05-08 06:04:00,52.5,51.7,29.86,SSW,206,0.0,0.0,97,0.00,,,0.01,Wunderground v.1.15,2013-05-08 10:04:00,
2013-05-08 06:10:00,52.5,51.7,29.86,SSW,206,0.0,0.0,97,0.00,,,0.01,Wunderground v.1.15,2013-05-08 10:10:00,
2013-05-08 06:15:00,52.6,51.8,29.87,SSW,206,0.0,0.0,97,0.00,,,0.01,Wunderground v.1.15,2013-05-08 10:15:00,
2013-05-08 06:20:00,52.6,51.8,29.87,SSW,206,0.0,0.0,97,0.00,,,0.01,Wunderground v.1.15,2013-05-08 10:20:00,
2013-05-08 06:25:00,52.6,51.8,29.87,SSW,206,0.0,0.0,97,0.00,,,0.01,Wunderground v.1.15,2013-05-08 10:25:00,
2013-05-08 06:34:00,52.6,51.8,29.88,SSW,206,0.0,0.0,97,0.00,,,0.01,Wunderground v.1.15,2013-05-08 10:34:00,
2013-05-08 06:40:00,52.6,51.8,29.88,SSW,206,0.0,0.0,97,0.00,,,0.01,Wunderground v.1.15,2013-05-08 10:40:00,
2013-05-08 06:45:00,52.5,51.7,29.88,SSW,206,0.0,0.0,97,0.00,,,0.01,Wunderground v.1.15,2013-05-08 10:45:00,
2013-05-08 06:50:00,52.5,51.7,29.88,SSW,206,0.0,0.0,97,0.00,,,0.01,Wunderground v.1.15,2013-05-08 10:50:00,
2013-05-08 06:55:00,52.5,51.7,29.88,SSW,206,0.0,0.0,97,0.00,,,0.01,Wunderground v.1.15,2013-05-08 10:55:00,
2013-05-08 07:04:00,52.5,51.7,29.89,SSW,206,0.0,0.0,97,0.00,,,0.01,Wunderground v.1.15,2013-05-08 11:04:00,
2013-05-08 07:10:00,52.5,51.7,29.89,SSW,206,0.0,0.0,97,0.00,,,0.01,Wunderground v.1.15,2013-05-08 11:10:00,
2013-05-08 07:15:00,52.6,51.8,29.90,SSW,206,0.0,0.0,97,0.00,,,0.01,Wunderground v.1.15,2013-05-08 11:15:00,
2013-05-08 07:24:00,52.8,52.3,29.90,SSW,206,0.0,0.0,98,0.00,,,0.01,Wunderground v.1.15,2013-05-08 11:24:00,
2013-05-08 07:29:00,53.0,52.5,29.90,SSW,206,0.0,0.0,98,0.00,,,0.01,Wunderground v.1.15,2013-05-08 11:29:00,
2013-05-08 07:35:00,53.0,52.5,29.90,SSW,206,0.0,0.0,98,0.00,,,0.01,Wunderground v.1.15,2013-05-08 11:35:00,
2013-05-08 07:40:00,53.1,52.6,29.90,SSW,206,0.0,0.0,98,0.00,,,0.01,Wunderground v.1.15,2013-05-08 11:40:00,
2013-05-08 07:49:00,53.3,52.8,29.90,SSW,206,0.0,0.0,98,0.00,,,0.01,Wunderground v.1.15,2013-05-08 11:49:00,
2013-05-08 07:55:00,53.4,52.8,29.90,SSW,206,0.0,0.0,98,0.00,,,0.01,Wunderground v.1.15,2013-05-08 11:55:00,
2013-05-08 08:00:00,53.6,53.0,29.91,SSW,206,0.0,0.0,98,0.00,,,0.01,Wunderground v.1.15,2013-05-08 12:00:00,
2013-05-08 08:05:00,53.9,53.3,29.91,SSW,206,0.0,0.0,98,0.00,,,0.01,Wunderground v.1.15,2013-05-08 12:05:00,
2013-05-08 08:10:00,54.3,53.7,29.91,SSW,206,0.0,0.0,98,0.00,,,0.01,Wunderground v.1.15,2013-05-08 12:10:00,
2013-05-08 08:19:00,54.9,54.3,29.91,SSW,206,0.0,0.0,98,0.00,,,0.01,Wunderground v.1.15,2013-05-08 12:19:00,
2013-05-08 08:25:00,55.1,54.5,29.91,SSW,206,0.0,0.0,98,0.00,,,0.01,Wunderground v.1.15,2013-05-08 12:25:00,
2013-05-08 08:30:00,55.2,54.6,29.91,SSW,206,0.0,0.0,98,0.00,,,0.01,Wunderground v.1.15,2013-05-08 12:30:00,
2013-05-08 08:35:00,55.4,54.8,29.91,SSW,206,0.0,0.0,98,0.00,,,0.01,Wunderground v.1.15,2013-05-08 12:35:00,
2013-05-08 08:44:00,55.5,54.9,29.91,South,172,0.0,0.0,98,0.00,,,0.01,Wunderground v.1.15,2013-05-08 12:44:00,
2013-05-08 08:49:00,55.7,55.1,29.91,SW,217,1.0,1.0,98,0.00,,,0.01,Wunderground v.1.15,2013-05-08 12:49:00,
2013-05-08 08:55:00,55.8,55.0,29.91,SE,134,0.0,2.0,97,0.00,,,0.01,Wunderground v.1.15,2013-05-08 12:55:00,
2013-05-08 09:00:00,55.9,55.1,29.92,ESE,105,0.0,0.0,97,0.00,,,0.01,Wunderground v.1.15,2013-05-08 13:00:00,
2013-05-08 09:05:00,56.2,55.4,29.92,SW,219,0.0,0.0,97,0.00,,,0.01,Wunderground v.1.15,2013-05-08 13:05:00,
2013-05-08 09:14:00,56.9,55.5,29.92,South,174,0.0,0.0,95,0.00,,,0.01,Wunderground v.1.15,2013-05-08 13:14:00,
2013-05-08 09:19:00,57.4,56.3,29.92,SSW,209,0.0,0.0,96,0.00,,,0.01,Wunderground v.1.15,2013-05-08 13:19:00,
2013-05-08 09:25:00,57.7,55.4,29.92,SSW,210,0.0,0.0,92,0.00,,,0.01,Wunderground v.1.15,2013-05-08 13:25:00,
2013-05-08 09:30:00,57.9,55.6,29.93,SW,221,0.0,0.0,92,0.00,,,0.01,Wunderground v.1.15,2013-05-08 13:30:00,
2013-05-08 09:39:00,58.3,56.0,29.93,SE,136,0.0,1.0,92,0.00,,,0.01,Wunderground v.1.15,2013-05-08 13:39:00,
2013-05-08 09:45:00,58.5,56.2,29.92,SW,229,1.0,1.0,92,0.00,,,0.01,Wunderground v.1.15,2013-05-08 13:45:00,
2013-05-08 09:50:00,58.6,56.3,29.92,SW,229,0.0,0.0,92,0.00,,,0.01,Wunderground v.1.15,2013-05-08 13:50:00,
2013-05-08 09:55:00,58.8,56.5,29.92,SE,133,0.0,2.0,92,0.00,,,0.01,Wunderground v.1.15,2013-05-08 13:55:00,
2013-05-08 10:00:00,58.9,56.3,29.93,ESE,103,1.0,1.0,91,0.00,,,0.01,Wunderground v.1.15,2013-05-08 14:00:00,
2013-05-08 10:09:00,59.4,56.5,29.93,WSW,256,1.0,1.0,90,0.00,,,0.01,Wunderground v.1.15,2013-05-08 14:09:00,
2013-05-08 10:15:00,59.7,56.8,29.93,SE,129,1.0,1.0,90,0.00,,,0.01,Wunderground v.1.15,2013-05-08 14:15:00,
2013-05-08 10:20:00,59.7,55.8,29.93,East,91,1.0,1.0,87,0.00,,,0.01,Wunderground v.1.15,2013-05-08 14:20:00,
2013-05-08 10:25:00,59.9,56.6,29.93,SE,133,1.0,1.0,89,0.00,,,0.01,Wunderground v.1.15,2013-05-08 14:25:00,
2013-05-08 10:30:00,60.2,56.9,29.93,WSW,252,1.0,1.0,89,0.00,,,0.01,Wunderground v.1.15,2013-05-08 14:30:00,
2013-05-08 10:39:00,60.9,57.0,29.93,SSE,160,1.0,2.0,87,0.00,,,0.01,Wunderground v.1.15,2013-05-08 14:39:00,
2013-05-08 10:45:00,61.2,56.7,29.93,SE,137,2.0,2.0,85,0.00,,,0.01,Wunderground v.1.15,2013-05-08 14:45:00,
2013-05-08 10:50:00,61.6,57.0,29.93,WSW,251,2.0,2.0,85,0.00,,,0.01,Wunderground v.1.15,2013-05-08 14:50:00,
2013-05-08 10:55:00,62.4,56.8,29.93,South,181,2.0,2.0,82,0.00,,,0.01,Wunderground v.1.15,2013-05-08 14:55:00,
2013-05-08 11:04:00,63.1,57.2,29.93,SSW,207,1.0,2.0,81,0.00,,,0.01,Wunderground v.1.15,2013-05-08 15:04:00,
2013-05-08 11:09:00,63.1,55.4,29.93,SW,231,2.0,2.0,76,0.00,,,0.01,Wunderground v.1.15,2013-05-08 15:09:00,
2013-05-08 11:15:00,63.0,57.1,29.93,SSE,165,1.0,2.0,81,0.00,,,0.01,Wunderground v.1.15,2013-05-08 15:15:00,
2013-05-08 11:20:00,63.0,57.4,29.93,SE,139,1.0,2.0,82,0.00,,,0.01,Wunderground v.1.15,2013-05-08 15:20:00,
2013-05-08 11:29:00,63.0,56.7,29.93,SW,218,1.0,1.0,80,0.00,,,0.01,Wunderground v.1.15,2013-05-08 15:29:00,
2013-05-08 11:35:00,62.9,55.2,29.93,SW,221,1.0,1.0,76,0.00,,,0.01,Wunderground v.1.15,2013-05-08 15:35:00,
2013-05-08 11:40:00,62.8,56.5,29.93,SSE,160,1.0,2.0,80,0.00,,,0.01,Wunderground v.1.15,2013-05-08 15:40:00,
2013-05-08 11:45:00,62.6,56.7,29.93,SSE,164,1.0,2.0,81,0.00,,,0.01,Wunderground v.1.15,2013-05-08 15:45:00,
2013-05-08 11:50:00,62.5,56.6,29.93,SW,229,1.0,1.0,81,0.00,,,0.01,Wunderground v.1.15,2013-05-08 15:50:00,
2013-05-08 11:59:00,62.5,57.3,29.93,East,96,1.0,1.0,83,0.00,,,0.01,Wunderground v.1.15,2013-05-08 15:59:00,
2013-05-08 12:05:00,62.7,57.5,29.93,SE,127,1.0,3.0,83,0.00,,,0.01,Wunderground v.1.15,2013-05-08 16:05:00,
2013-05-08 12:14:00,63.1,57.2,29.93,SE,141,1.0,2.0,81,0.00,,,0.01,Wunderground v.1.15,2013-05-08 16:14:00,
2013-05-08 12:19:00,63.4,57.5,29.92,South,175,2.0,2.0,81,0.00,,,0.01,Wunderground v.1.15,2013-05-08 16:19:00,
2013-05-08 12:25:00,64.2,57.2,29.92,SW,234,1.0,3.0,78,0.00,,,0.01,Wunderground v.1.15,2013-05-08 16:25:00,
2013-05-08 12:30:00,64.9,57.9,29.92,SSW,195,1.0,4.0,78,0.00,,,0.01,Wunderground v.1.15,2013-05-08 16:30:00,
2013-05-08 12:40:00,66.5,57.2,29.92,SSW,212,1.0,3.0,72,0.00,,,0.01,Wunderground v.1.15,2013-05-08 16:40:00,
2013-05-08 12:45:00,66.4,57.9,29.91,WSW,250,1.0,3.0,74,0.00,,,0.01,Wunderground v.1.15,2013-05-08 16:45:00,
2013-05-08 12:50:00,66.1,57.2,29.91,SW,222,2.0,2.0,73,0.00,,,0.01,Wunderground v.1.15,2013-05-08 16:50:00,
2013-05-08 12:55:00,65.6,57.8,29.91,SE,135,2.0,3.0,76,0.00,,,0.01,Wunderground v.1.15,2013-05-08 16:55:00,
2013-05-08 13:04:00,65.1,58.4,29.91,WNW,287,1.0,3.0,79,0.00,,,0.01,Wunderground v.1.15,2013-05-08 17:04:00,
2013-05-08 13:10:00,65.5,58.8,29.91,South,186,1.0,3.0,79,0.00,,,0.01,Wunderground v.1.15,2013-05-08 17:10:00,
2013-05-08 13:15:00,65.6,58.2,29.91,SSW,195,2.0,3.0,77,0.00,,,0.01,Wunderground v.1.15,2013-05-08 17:15:00,
2013-05-08 13:20:00,65.6,57.8,29.91,WSW,239,2.0,3.0,76,0.00,,,0.01,Wunderground v.1.15,2013-05-08 17:20:00,
2013-05-08 13:29:00,65.7,58.7,29.91,NE,41,1.0,1.0,78,0.00,,,0.01,Wunderground v.1.15,2013-05-08 17:29:00,
2013-05-08 13:34:00,65.7,58.7,29.90,ESE,115,1.0,3.0,78,0.00,,,0.01,Wunderground v.1.15,2013-05-08 17:34:00,
2013-05-08 13:40:00,65.4,58.7,29.90,SW,217,1.0,1.0,79,0.00,,,0.01,Wunderground v.1.15,2013-05-08 17:40:00,
2013-05-08 13:45:00,65.2,57.4,29.90,WSW,255,1.0,3.0,76,0.00,,,0.01,Wunderground v.1.15,2013-05-08 17:45:00,
2013-05-08 13:54:00,65.0,58.0,29.90,SSW,207,1.0,3.0,78,0.00,,,0.01,Wunderground v.1.15,2013-05-08 17:54:00,
2013-05-08 13:59:00,65.0,58.0,29.89,SW,235,1.0,3.0,78,0.00,,,0.01,Wunderground v.1.15,2013-05-08 17:59:00,
2013-05-08 14:04:00,65.2,58.5,29.89,SW,221,1.0,3.0,79,0.00,,,0.01,Wunderground v.1.15,2013-05-08 18:04:00,
2013-05-08 14:10:00,65.3,59.3,29.89,SW,225,2.0,3.0,81,0.00,,,0.01,Wunderground v.1.15,2013-05-08 18:10:00,
2013-05-08 14:15:00,65.3,58.6,29.89,South,175,2.0,3.0,79,0.00,,,0.01,Wunderground v.1.15,2013-05-08 18:15:00,
2013-05-08 14:24:00,65.1,57.3,29.89,South,185,1.0,3.0,76,0.00,,,0.01,Wunderground v.1.15,2013-05-08 18:24:00,
2013-05-08 14:30:00,65.1,57.7,29.89,WSW,258,1.0,1.0,77,0.00,,,0.01,Wunderground v.1.15,2013-05-08 18:30:00,
2013-05-08 14:35:00,64.9,56.0,29.89,West,263,0.0,3.0,73,0.00,,,0.01,Wunderground v.1.15,2013-05-08 18:35:00,
2013-05-08 14:40:00,64.7,57.0,29.89,West,259,0.0,3.0,76,0.00,,,0.01,Wunderground v.1.15,2013-05-08 18:40:00,
2013-05-08 14:45:00,64.6,57.6,29.89,WSW,251,0.0,3.0,78,0.00,,,0.01,Wunderground v.1.15,2013-05-08 18:45:00,
2013-05-08 14:54:00,64.4,58.8,29.89,SSW,207,1.0,3.0,82,0.00,,,0.01,Wunderground v.1.15,2013-05-08 18:54:00,
2013-05-08 15:00:00,64.2,57.2,29.89,SSW,211,1.0,3.0,78,0.00,,,0.01,Wunderground v.1.15,2013-05-08 19:00:00,
2013-05-08 15:05:00,64.2,57.5,29.89,WSW,237,1.0,3.0,79,0.00,,,0.01,Wunderground v.1.15,2013-05-08 19:05:00,
2013-05-08 15:10:00,64.2,57.9,29.89,WSW,252,1.0,3.0,80,0.00,,,0.01,Wunderground v.1.15,2013-05-08 19:10:00,
2013-05-08 15:19:00,64.0,58.4,29.89,SSW,209,1.0,1.0,82,0.00,,,0.01,Wunderground v.1.15,2013-05-08 19:19:00,
2013-05-08 15:24:00,63.9,58.3,29.89,SSW,209,0.0,3.0,82,0.00,,,0.01,Wunderground v.1.15,2013-05-08 19:24:00,
2013-05-08 15:30:00,63.7,58.8,29.88,SW,230,0.0,3.0,84,0.00,,,0.01,Wunderground v.1.15,2013-05-08 19:30:00,
2013-05-08 15:35:00,63.6,58.7,29.88,South,188,0.0,3.0,84,0.00,,,0.01,Wunderground v.1.15,2013-05-08 19:35:00,
2013-05-08 15:44:00,63.4,57.8,29.88,WSW,248,0.0,3.0,82,0.00,,,0.01,Wunderground v.1.15,2013-05-08 19:44:00,
2013-05-08 15:49:00,63.4,58.5,29.88,SSW,201,0.0,3.0,84,0.00,,,0.01,Wunderground v.1.15,2013-05-08 19:49:00,
2013-05-08 15:55:00,63.3,58.7,29.88,SSW,201,0.0,3.0,85,0.00,,,0.01,Wunderground v.1.15,2013-05-08 19:55:00,
2013-05-08 16:00:00,63.3,59.0,29.88,SSW,201,0.0,3.0,86,0.00,,,0.01,Wunderground v.1.15,2013-05-08 20:00:00,
2013-05-08 16:05:00,63.4,59.5,29.88,SSW,201,0.0,3.0,87,0.00,,,0.01,Wunderground v.1.15,2013-05-08 20:05:00,
2013-05-08 16:14:00,63.5,59.6,29.88,SSW,201,0.0,3.0,87,0.00,,,0.01,Wunderground v.1.15,2013-05-08 20:14:00,
2013-05-08 16:20:00,63.4,59.1,29.88,WSW,240,0.0,3.0,86,0.00,,,0.01,Wunderground v.1.15,2013-05-08 20:20:00,
2013-05-08 16:25:00,63.3,59.4,29.88,SSE,164,0.0,3.0,87,0.00,,,0.01,Wunderground v.1.15,2013-05-08 20:25:00,
2013-05-08 16:30:00,63.4,59.5,29.88,SSE,162,1.0,3.0,87,0.00,,,0.01,Wunderground v.1.15,2013-05-08 20:30:00,
2013-05-08 16:35:00,63.4,59.1,29.88,SW,226,1.0,3.0,86,0.00,,,0.01,Wunderground v.1.15,2013-05-08 20:35:00,
2013-05-08 16:44:00,63.7,59.4,29.88,South,181,0.0,3.0,86,0.00,,,0.01,Wunderground v.1.15,2013-05-08 20:44:00,
2013-05-08 16:50:00,63.8,59.5,29.87,South,181,0.0,3.0,86,0.00,,,0.01,Wunderground v.1.15,2013-05-08 20:50:00,
2013-05-08 16:55:00,63.8,59.5,29.87,South,180,0.0,3.0,86,0.00,,,0.01,Wunderground v.1.15,2013-05-08 20:55:00,
2013-05-08 17:00:00,63.9,60.3,29.87,South,180,0.0,3.0,88,0.00,,,0.01,Wunderground v.1.15,2013-05-08 21:00:00,
2013-05-08 17:05:00,64.0,60.1,29.87,SW,229,0.0,3.0,87,0.00,,,0.01,Wunderground v.1.15,2013-05-08 21:05:00,
2013-05-08 17:14:00,64.3,59.0,29.87,WSW,238,0.0,3.0,83,0.00,,,0.01,Wunderground v.1.15,2013-05-08 21:14:00,
2013-05-08 17:20:00,64.6,60.0,29.87,South,183,1.0,3.0,85,0.00,,,0.01,Wunderground v.1.15,2013-05-08 21:20:00,
2013-05-08 17:25:00,64.9,60.6,29.87,ESE,102,1.0,3.0,86,0.00,,,0.01,Wunderground v.1.15,2013-05-08 21:25:00,
2013-05-08 17:34:00,65.2,60.6,29.86,SW,214,1.0,3.0,85,0.00,,,0.01,Wunderground v.1.15,2013-05-08 21:34:00,
2013-05-08 17:39:00,65.2,59.9,29.86,SSW,200,0.0,3.0,83,0.00,,,0.01,Wunderground v.1.15,2013-05-08 21:39:00,
2013-05-08 17:44:00,65.3,60.3,29.86,SSW,212,0.0,3.0,84,0.00,,,0.01,Wunderground v.1.15,2013-05-08 21:44:00,
2013-05-08 17:50:00,65.4,61.1,29.86,SSW,212,0.0,3.0,86,0.00,,,0.01,Wunderground v.1.15,2013-05-08 21:50:00,
2013-05-08 17:55:00,65.4,60.8,29.86,SSW,212,0.0,3.0,85,0.00,,,0.01,Wunderground v.1.15,2013-05-08 21:55:00,
2013-05-08 18:04:00,65.4,61.1,29.87,SSW,210,0.0,3.0,86,0.00,,,0.01,Wunderground v.1.15,2013-05-08 22:04:00,
2013-05-08 18:10:00,65.5,60.9,29.87,SSW,210,0.0,3.0,85,0.00,,,0.01,Wunderground v.1.15,2013-05-08 22:10:00,
2013-05-08 18:15:00,65.6,61.3,29.86,SSW,210,0.0,3.0,86,0.00,,,0.01,Wunderground v.1.15,2013-05-08 22:15:00,
2013-05-08 18:20:00,65.7,61.7,29.86,SSW,210,0.0,3.0,87,0.00,,,0.01,Wunderground v.1.15,2013-05-08 22:20:00,
2013-05-08 18:25:00,65.7,61.4,29.86,SSW,210,0.0,3.0,86,0.00,,,0.01,Wunderground v.1.15,2013-05-08 22:25:00,
2013-05-08 18:34:00,65.7,61.4,29.86,SSW,210,0.0,3.0,86,0.00,,,0.01,Wunderground v.1.15,2013-05-08 22:34:00,
2013-05-08 18:40:00,65.6,61.0,29.86,SSW,210,0.0,3.0,85,0.00,,,0.01,Wunderground v.1.15,2013-05-08 22:40:00,
2013-05-08 18:45:00,65.5,60.9,29.86,SSW,210,0.0,3.0,85,0.00,,,0.01,Wunderground v.1.15,2013-05-08 22:45:00,
2013-05-08 18:50:00,65.4,60.8,29.86,SSW,210,0.0,3.0,85,0.00,,,0.01,Wunderground v.1.15,2013-05-08 22:50:00,
2013-05-08 18:55:00,65.2,60.6,29.86,SSW,210,0.0,3.0,85,0.00,,,0.01,Wunderground v.1.15,2013-05-08 22:55:00,
2013-05-08 19:04:00,64.7,59.8,29.86,SSW,210,0.0,3.0,84,0.00,,,0.01,Wunderground v.1.15,2013-05-08 23:04:00,
2013-05-08 19:10:00,64.6,60.0,29.86,SSW,210,0.0,3.0,85,0.00,,,0.01,Wunderground v.1.15,2013-05-08 23:10:00,
2013-05-08 19:15:00,64.4,60.1,29.87,SSW,210,0.0,3.0,86,0.00,,,0.01,Wunderground v.1.15,2013-05-08 23:15:00,
2013-05-08 19:24:00,64.1,60.2,29.87,SSW,210,0.0,3.0,87,0.00,,,0.01,Wunderground v.1.15,2013-05-08 23:24:00,
2013-05-08 19:29:00,63.9,60.6,29.87,SSW,210,0.0,3.0,89,0.00,,,0.01,Wunderground v.1.15,2013-05-08 23:29:00,
2013-05-08 19:34:00,63.6,60.6,29.88,SSW,210,0.0,3.0,90,0.00,,,0.01,Wunderground v.1.15,2013-05-08 23:34:00,
2013-05-08 19:40:00,63.3,60.6,29.88,SSW,210,0.0,3.0,91,0.00,,,0.01,Wunderground v.1.15,2013-05-08 23:40:00,
2013-05-08 19:45:00,62.9,60.2,29.89,SSW,210,0.0,3.0,91,0.00,,,0.01,Wunderground v.1.15,2013-05-08 23:45:00,
2013-05-08 19:54:00,62.3,59.9,29.89,NW,317,0.0,3.0,92,0.00,,,0.02,Wunderground v.1.15,2013-05-08 23:54:00,
2013-05-08 19:59:00,62.0,60.0,29.90,NW,304,0.0,3.0,93,0.00,,,0.02,Wunderground v.1.15,2013-05-08 23:59:00,
2013-05-08 20:04:00,61.8,59.8,29.90,NW,304,0.0,3.0,93,0.00,,,0.02,Wunderground v.1.15,2013-05-09 00:04:00,
2013-05-08 20:10:00,61.6,59.6,29.90,NW,304,0.0,3.0,93,0.00,,,0.02,Wunderground v.1.15,2013-05-09 00:10:00,
2013-05-08 20:15:00,61.5,59.8,29.90,NW,304,0.0,3.0,94,0.00,,,0.02,Wunderground v.1.15,2013-05-09 00:15:00,
2013-05-08 20:24:00,61.3,59.6,29.90,NW,304,0.0,3.0,94,0.00,,,0.02,Wunderground v.1.15,2013-05-09 00:24:00,
2013-05-08 20:30:00,61.1,59.7,29.91,NW,304,0.0,3.0,95,0.00,,,0.02,Wunderground v.1.15,2013-05-09 00:30:00,
2013-05-08 20:35:00,60.9,59.5,29.91,NW,304,0.0,3.0,95,0.00,,,0.02,Wunderground v.1.15,2013-05-09 00:35:00,
2013-05-08 20:40:00,60.8,59.4,29.91,NW,304,0.0,3.0,95,0.00,,,0.02,Wunderground v.1.15,2013-05-09 00:40:00,
2013-05-08 20:45:00,60.7,59.3,29.91,NW,304,0.0,3.0,95,0.00,,,0.02,Wunderground v.1.15,2013-05-09 00:45:00,
2013-05-08 20:54:00,60.6,59.2,29.91,NW,304,0.0,3.0,95,0.00,,,0.02,Wunderground v.1.15,2013-05-09 00:54:00,
2013-05-08 21:00:00,60.5,59.4,29.92,NW,305,0.0,3.0,96,0.00,,,0.02,Wunderground v.1.15,2013-05-09 01:00:00,
2013-05-08 21:05:00,60.5,59.4,29.92,NW,305,0.0,3.0,96,0.00,,,0.02,Wunderground v.1.15,2013-05-09 01:05:00,
2013-05-08 21:14:00,60.3,59.2,29.92,NW,304,0.0,3.0,96,0.00,,,0.02,Wunderground v.1.15,2013-05-09 01:14:00,
2013-05-08 21:19:00,60.2,59.1,29.92,NW,305,0.0,3.0,96,0.00,,,0.02,Wunderground v.1.15,2013-05-09 01:19:00,
2013-05-08 21:25:00,60.1,59.0,29.92,NW,305,0.0,3.0,96,0.00,,,0.02,Wunderground v.1.15,2013-05-09 01:25:00,
2013-05-08 21:30:00,60.0,58.9,29.92,NW,305,0.0,3.0,96,0.00,,,0.02,Wunderground v.1.15,2013-05-09 01:30:00,
2013-05-08 21:35:00,60.0,58.9,29.92,NW,305,0.0,3.0,96,0.00,,,0.02,Wunderground v.1.15,2013-05-09 01:35:00,
2013-05-08 21:44:00,59.9,59.0,29.92,NW,305,0.0,3.0,97,0.00,,,0.02,Wunderground v.1.15,2013-05-09 01:44:00,
2013-05-08 21:49:00,59.8,58.9,29.93,NW,305,0.0,3.0,97,0.00,,,0.02,Wunderground v.1.15,2013-05-09 01:49:00,
2013-05-08 21:55:00,59.7,58.6,29.93,NW,305,0.0,3.0,96,0.00,,,0.02,Wunderground v.1.15,2013-05-09 01:55:00,
2013-05-08 22:00:00,59.7,58.6,29.93,NW,305,0.0,3.0,96,0.00,,,0.02,Wunderground v.1.15,2013-05-09 02:00:00,
2013-05-08 22:09:00,59.5,58.6,29.93,NW,305,0.0,3.0,97,0.00,,,0.02,Wunderground v.1.15,2013-05-09 02:09:00,
2013-05-08 22:14:00,59.4,58.5,29.93,NW,305,0.0,3.0,97,0.00,,,0.02,Wunderground v.1.15,2013-05-09 02:14:00,
2013-05-08 22:20:00,59.3,58.4,29.93,NW,305,0.0,3.0,97,0.00,,,0.02,Wunderground v.1.15,2013-05-09 02:20:00,
2013-05-08 22:25:00,59.2,58.3,29.93,NW,305,0.0,3.0,97,0.00,,,0.02,Wunderground v.1.15,2013-05-09 02:25:00,
2013-05-08 22:30:00,59.1,58.0,29.94,NW,305,0.0,3.0,96,0.00,,,0.02,Wunderground v.1.15,2013-05-09 02:30:00,
2013-05-08 22:39:00,58.8,57.7,29.94,NW,305,0.0,3.0,96,0.00,,,0.02,Wunderground v.1.15,2013-05-09 02:39:00,
2013-05-08 22:44:00,58.7,57.9,29.94,NW,305,0.0,3.0,97,0.00,,,0.02,Wunderground v.1.15,2013-05-09 02:44:00,
2013-05-08 22:50:00,58.6,57.8,29.94,NW,305,0.0,3.0,97,0.00,,,0.02,Wunderground v.1.15,2013-05-09 02:50:00,
2013-05-08 22:55:00,58.6,57.8,29.94,NW,305,0.0,3.0,97,0.00,,,0.02,Wunderground v.1.15,2013-05-09 02:55:00,
2013-05-08 23:04:00,58.4,57.6,29.94,NW,305,0.0,3.0,97,0.00,,,0.02,Wunderground v.1.15,2013-05-09 03:04:00,
2013-05-08 23:09:00,58.3,57.2,29.94,NW,305,0.0,3.0,96,0.00,,,0.02,Wunderground v.1.15,2013-05-09 03:09:00,
2013-05-08 23:15:00,58.1,57.3,29.93,NW,305,0.0,3.0,97,0.00,,,0.02,Wunderground v.1.15,2013-05-09 03:15:00,
2013-05-08 23:20:00,58.0,57.2,29.93,NW,305,0.0,3.0,97,0.00,,,0.02,Wunderground v.1.15,2013-05-09 03:20:00,
2013-05-08 23:25:00,57.9,56.8,29.93,NW,305,0.0,3.0,96,0.00,,,0.02,Wunderground v.1.15,2013-05-09 03:25:00,
2013-05-08 23:34:00,57.5,56.4,29.93,NW,305,0.0,3.0,96,0.00,,,0.02,Wunderground v.1.15,2013-05-09 03:34:00,
2013-05-08 23:39:00,57.4,56.6,29.93,NW,305,0.0,3.0,97,0.00,,,0.02,Wunderground v.1.15,2013-05-09 03:39:00,
2013-05-08 23:45:00,57.3,56.2,29.93,NW,305,0.0,3.0,96,0.00,,,0.02,Wunderground v.1.15,2013-05-09 03:45:00,
2013-05-08 23:50:00,57.1,56.0,29.93,NW,305,0.0,3.0,96,0.00,,,0.02,Wunderground v.1.15,2013-05-09 03:50:00,
2013-05-08 23:59:00,56.8,55.7,29.93,NW,305,0.0,3.0,96,0.00,,,0.02,Wunderground v.1.15,2013-05-09 03:59:00,